Terminal Aerodrome Forecast
Issued by NWS

Home | Current Version | Previous Version | Text Only | Print | Product List | Glossary On
Versions: 1 2 3 4 5 6 7 8 9 10 11 12 13 14 15 16 17 18 19 20 21 22 23 24 25 26 27 28 29 30
000
FTUS42 TJSJ 161138
TAFISX
TAF
TISX 161138Z 1612/1712 07008KT P6SM -SHRA SCT025 BKN050
      TEMPO 1612/1614 VRB12G18KT 5SM SHRA BKN025 OVC050
     FM161400 10014G22KT P6SM VCSH SCT025 SCT050 BKN080
      TEMPO 1617/1621 4SM SHRA BKN025 BKN040
     FM162300 09012KT P6SM SCT022 SCT035
     FM170300 08008KT P6SM VCSH SCT022 BKN050=

USA.gov is the U.S. government's official web portal to all federal, state and local government web resources and services.